sensor_id;sensor_type;location;lat;lon;timestamp;P1;durP1;ratioP1;P2;durP2;ratioP2
3843;SDS011;1937;51.444;6.484;2023-04-06T00:00:23;11.13;;;8.37;;
3843;SDS011;1937;51.444;6.484;2023-04-06T00:02:50;16.67;;;9.33;;
3843;SDS011;1937;51.444;6.484;2023-04-06T00:05:17;14.33;;;7.80;;
3843;SDS011;1937;51.444;6.484;2023-04-06T00:07:44;13.07;;;8.57;;
3843;SDS011;1937;51.444;6.484;2023-04-06T00:10:11;14.80;;;8.90;;
3843;SDS011;1937;51.444;6.484;2023-04-06T00:12:37;11.90;;;9.13;;
3843;SDS011;1937;51.444;6.484;2023-04-06T00:15:04;14.70;;;10.27;;
3843;SDS011;1937;51.444;6.484;2023-04-06T00:17:33;11.17;;;7.50;;
3843;SDS011;1937;51.444;6.484;2023-04-06T00:20:00;13.43;;;7.93;;
3843;SDS011;1937;51.444;6.484;2023-04-06T00:22:27;16.30;;;8.87;;
3843;SDS011;1937;51.444;6.484;2023-04-06T00:24:53;15.67;;;9.50;;
3843;SDS011;1937;51.444;6.484;2023-04-06T00:27:20;17.23;;;9.77;;
3843;SDS011;1937;51.444;6.484;2023-04-06T00:29:47;14.63;;;9.40;;
3843;SDS011;1937;51.444;6.484;2023-04-06T00:32:13;12.77;;;7.97;;
3843;SDS011;1937;51.444;6.484;2023-04-06T00:34:41;17.00;;;9.97;;
3843;SDS011;1937;51.444;6.484;2023-04-06T00:37:08;14.67;;;8.90;;
3843;SDS011;1937;51.444;6.484;2023-04-06T00:39:35;13.40;;;7.90;;
3843;SDS011;1937;51.444;6.484;2023-04-06T00:42:01;16.23;;;9.87;;
3843;SDS011;1937;51.444;6.484;2023-04-06T00:44:37;13.47;;;8.43;;
3843;SDS011;1937;51.444;6.484;2023-04-06T00:47:04;18.60;;;8.43;;
3843;SDS011;1937;51.444;6.484;2023-04-06T00:49:31;17.30;;;8.20;;
3843;SDS011;1937;51.444;6.484;2023-04-06T00:52:00;15.43;;;8.90;;
3843;SDS011;1937;51.444;6.484;2023-04-06T00:54:27;15.90;;;8.73;;
3843;SDS011;1937;51.444;6.484;2023-04-06T00:56:54;16.07;;;8.70;;
3843;SDS011;1937;51.444;6.484;2023-04-06T00:59:21;15.20;;;9.00;;
3843;SDS011;1937;51.444;6.484;2023-04-06T01:01:48;11.13;;;8.07;;
3843;SDS011;1937;51.444;6.484;2023-04-06T01:04:15;11.70;;;7.30;;
3843;SDS011;1937;51.444;6.484;2023-04-06T01:06:42;15.83;;;7.47;;
3843;SDS011;1937;51.444;6.484;2023-04-06T01:09:10;13.20;;;9.20;;
3843;SDS011;1937;51.444;6.484;2023-04-06T01:11:36;10.53;;;7.63;;
3843;SDS011;1937;51.444;6.484;2023-04-06T01:14:03;15.00;;;8.63;;
3843;SDS011;1937;51.444;6.484;2023-04-06T01:16:30;15.40;;;8.57;;
3843;SDS011;1937;51.444;6.484;2023-04-06T01:18:56;12.70;;;8.40;;
3843;SDS011;1937;51.444;6.484;2023-04-06T01:21:23;15.33;;;8.23;;
3843;SDS011;1937;51.444;6.484;2023-04-06T01:23:51;13.40;;;8.20;;
3843;SDS011;1937;51.444;6.484;2023-04-06T01:26:18;13.37;;;7.27;;
3843;SDS011;1937;51.444;6.484;2023-04-06T01:28:45;13.00;;;9.00;;
3843;SDS011;1937;51.444;6.484;2023-04-06T01:31:11;12.70;;;8.90;;
3843;SDS011;1937;51.444;6.484;2023-04-06T01:33:38;16.80;;;8.43;;
3843;SDS011;1937;51.444;6.484;2023-04-06T01:36:05;18.20;;;9.57;;
3843;SDS011;1937;51.444;6.484;2023-04-06T01:38:32;13.83;;;9.00;;
3843;SDS011;1937;51.444;6.484;2023-04-06T01:41:00;15.13;;;8.33;;
3843;SDS011;1937;51.444;6.484;2023-04-06T01:43:26;16.50;;;7.80;;
3843;SDS011;1937;51.444;6.484;2023-04-06T01:45:53;13.37;;;7.27;;
3843;SDS011;1937;51.444;6.484;2023-04-06T01:48:20;11.50;;;8.13;;
3843;SDS011;1937;51.444;6.484;2023-04-06T01:50:47;13.47;;;7.30;;
3843;SDS011;1937;51.444;6.484;2023-04-06T01:53:13;14.17;;;8.23;;
3843;SDS011;1937;51.444;6.484;2023-04-06T01:55:40;8.83;;;6.37;;
3843;SDS011;1937;51.444;6.484;2023-04-06T01:58:08;10.03;;;7.50;;
3843;SDS011;1937;51.444;6.484;2023-04-06T02:00:35;11.60;;;8.00;;
3843;SDS011;1937;51.444;6.484;2023-04-06T02:03:02;11.10;;;7.53;;
3843;SDS011;1937;51.444;6.484;2023-04-06T02:05:29;14.43;;;7.83;;
3843;SDS011;1937;51.444;6.484;2023-04-06T02:07:58;15.80;;;7.80;;
3843;SDS011;1937;51.444;6.484;2023-04-06T02:10:25;13.43;;;8.10;;
3843;SDS011;1937;51.444;6.484;2023-04-06T02:12:51;15.70;;;9.03;;
3843;SDS011;1937;51.444;6.484;2023-04-06T02:15:19;10.93;;;7.57;;
3843;SDS011;1937;51.444;6.484;2023-04-06T02:17:46;11.13;;;8.20;;
3843;SDS011;1937;51.444;6.484;2023-04-06T02:20:12;12.80;;;8.20;;
3843;SDS011;1937;51.444;6.484;2023-04-06T02:22:39;13.40;;;7.97;;
3843;SDS011;1937;51.444;6.484;2023-04-06T02:25:06;13.20;;;8.33;;
3843;SDS011;1937;51.444;6.484;2023-04-06T02:27:34;14.10;;;8.80;;
3843;SDS011;1937;51.444;6.484;2023-04-06T02:30:01;13.53;;;6.70;;
3843;SDS011;1937;51.444;6.484;2023-04-06T02:32:29;14.70;;;8.60;;
3843;SDS011;1937;51.444;6.484;2023-04-06T02:34:56;14.77;;;9.70;;
3843;SDS011;1937;51.444;6.484;2023-04-06T02:37:22;16.90;;;9.60;;
3843;SDS011;1937;51.444;6.484;2023-04-06T02:39:49;16.73;;;8.70;;
3843;SDS011;1937;51.444;6.484;2023-04-06T02:42:16;17.03;;;8.93;;
3843;SDS011;1937;51.444;6.484;2023-04-06T02:44:42;12.47;;;8.40;;
3843;SDS011;1937;51.444;6.484;2023-04-06T02:47:09;11.17;;;8.07;;
3843;SDS011;1937;51.444;6.484;2023-04-06T02:49:37;14.47;;;9.67;;
3843;SDS011;1937;51.444;6.484;2023-04-06T02:52:04;11.43;;;8.70;;
3843;SDS011;1937;51.444;6.484;2023-04-06T02:54:31;17.70;;;8.03;;
3843;SDS011;1937;51.444;6.484;2023-04-06T02:56:57;18.03;;;8.83;;
3843;SDS011;1937;51.444;6.484;2023-04-06T02:59:24;16.47;;;9.03;;
3843;SDS011;1937;51.444;6.484;2023-04-06T03:01:51;12.73;;;7.70;;
3843;SDS011;1937;51.444;6.484;2023-04-06T03:04:18;14.23;;;8.73;;
3843;SDS011;1937;51.444;6.484;2023-04-06T03:06:46;13.63;;;7.90;;
3843;SDS011;1937;51.444;6.484;2023-04-06T03:09:12;18.40;;;9.47;;
3843;SDS011;1937;51.444;6.484;2023-04-06T03:11:39;13.10;;;9.20;;
3843;SDS011;1937;51.444;6.484;2023-04-06T03:14:06;12.23;;;8.33;;
3843;SDS011;1937;51.444;6.484;2023-04-06T03:16:33;15.20;;;9.00;;
3843;SDS011;1937;51.444;6.484;2023-04-06T03:18:59;12.97;;;8.10;;
3843;SDS011;1937;51.444;6.484;2023-04-06T03:21:26;18.40;;;9.20;;
3843;SDS011;1937;51.444;6.484;2023-04-06T03:23:54;12.77;;;9.23;;
3843;SDS011;1937;51.444;6.484;2023-04-06T03:26:21;13.43;;;8.50;;
3843;SDS011;1937;51.444;6.484;2023-04-06T03:28:47;12.97;;;9.50;;
3843;SDS011;1937;51.444;6.484;2023-04-06T03:31:14;14.53;;;9.53;;
3843;SDS011;1937;51.444;6.484;2023-04-06T03:33:41;18.30;;;8.73;;
3843;SDS011;1937;51.444;6.484;2023-04-06T03:36:07;18.20;;;9.17;;
3843;SDS011;1937;51.444;6.484;2023-04-06T03:38:34;15.80;;;8.57;;
3843;SDS011;1937;51.444;6.484;2023-04-06T03:41:02;16.60;;;9.10;;
3843;SDS011;1937;51.444;6.484;2023-04-06T03:43:29;14.93;;;9.43;;
3843;SDS011;1937;51.444;6.484;2023-04-06T03:45:56;15.73;;;9.37;;
3843;SDS011;1937;51.444;6.484;2023-04-06T03:48:22;15.67;;;9.50;;
3843;SDS011;1937;51.444;6.484;2023-04-06T03:50:49;22.30;;;10.50;;
3843;SDS011;1937;51.444;6.484;2023-04-06T03:53:16;19.43;;;10.23;;
3843;SDS011;1937;51.444;6.484;2023-04-06T03:55:42;15.83;;;9.87;;
3843;SDS011;1937;51.444;6.484;2023-04-06T03:58:10;21.10;;;9.77;;
3843;SDS011;1937;51.444;6.484;2023-04-06T04:00:37;18.00;;;10.40;;
3843;SDS011;1937;51.444;6.484;2023-04-06T04:03:04;17.73;;;9.87;;
3843;SDS011;1937;51.444;6.484;2023-04-06T04:05:30;16.33;;;10.00;;
3843;SDS011;1937;51.444;6.484;2023-04-06T04:07:57;13.80;;;10.53;;
3843;SDS011;1937;51.444;6.484;2023-04-06T04:10:24;14.37;;;9.30;;
3843;SDS011;1937;51.444;6.484;2023-04-06T04:12:50;20.70;;;10.00;;
3843;SDS011;1937;51.444;6.484;2023-04-06T04:15:18;20.40;;;10.67;;
3843;SDS011;1937;51.444;6.484;2023-04-06T04:17:45;19.87;;;10.70;;
3843;SDS011;1937;51.444;6.484;2023-04-06T04:20:14;18.03;;;9.80;;
3843;SDS011;1937;51.444;6.484;2023-04-06T04:22:41;19.90;;;9.70;;
3843;SDS011;1937;51.444;6.484;2023-04-06T04:25:08;16.33;;;8.53;;
3843;SDS011;1937;51.444;6.484;2023-04-06T04:27:35;17.20;;;9.73;;
3843;SDS011;1937;51.444;6.484;2023-04-06T04:30:02;18.00;;;9.73;;
3843;SDS011;1937;51.444;6.484;2023-04-06T04:32:30;21.47;;;9.10;;
3843;SDS011;1937;51.444;6.484;2023-04-06T04:34:57;17.80;;;10.10;;
3843;SDS011;1937;51.444;6.484;2023-04-06T04:37:23;19.00;;;10.00;;
3843;SDS011;1937;51.444;6.484;2023-04-06T04:39:50;18.70;;;11.13;;
3843;SDS011;1937;51.444;6.484;2023-04-06T04:42:17;22.83;;;10.60;;
3843;SDS011;1937;51.444;6.484;2023-04-06T04:44:43;21.43;;;9.90;;
3843;SDS011;1937;51.444;6.484;2023-04-06T04:47:10;15.67;;;11.33;;
3843;SDS011;1937;51.444;6.484;2023-04-06T04:49:38;15.30;;;10.10;;
3843;SDS011;1937;51.444;6.484;2023-04-06T04:52:05;19.33;;;9.97;;
3843;SDS011;1937;51.444;6.484;2023-04-06T04:54:31;23.50;;;10.90;;
3843;SDS011;1937;51.444;6.484;2023-04-06T04:56:58;20.30;;;10.97;;
3843;SDS011;1937;51.444;6.484;2023-04-06T04:59:25;16.47;;;10.70;;
3843;SDS011;1937;51.444;6.484;2023-04-06T05:01:51;16.60;;;11.67;;
3843;SDS011;1937;51.444;6.484;2023-04-06T05:04:18;22.07;;;10.80;;
3843;SDS011;1937;51.444;6.484;2023-04-06T05:06:46;21.43;;;11.70;;
3843;SDS011;1937;51.444;6.484;2023-04-06T05:09:13;19.87;;;11.20;;
3843;SDS011;1937;51.444;6.484;2023-04-06T05:11:40;20.13;;;11.53;;
3843;SDS011;1937;51.444;6.484;2023-04-06T05:14:06;22.67;;;12.57;;
3843;SDS011;1937;51.444;6.484;2023-04-06T05:16:33;23.40;;;14.27;;
3843;SDS011;1937;51.444;6.484;2023-04-06T05:19:00;19.80;;;12.03;;
3843;SDS011;1937;51.444;6.484;2023-04-06T05:21:27;21.23;;;11.20;;
3843;SDS011;1937;51.444;6.484;2023-04-06T05:23:55;22.00;;;12.50;;
3843;SDS011;1937;51.444;6.484;2023-04-06T05:26:21;21.03;;;12.70;;
3843;SDS011;1937;51.444;6.484;2023-04-06T05:28:48;19.57;;;12.50;;
3843;SDS011;1937;51.444;6.484;2023-04-06T05:31:15;23.47;;;12.53;;
3843;SDS011;1937;51.444;6.484;2023-04-06T05:33:42;20.30;;;13.30;;
3843;SDS011;1937;51.444;6.484;2023-04-06T05:36:08;25.00;;;12.67;;
3843;SDS011;1937;51.444;6.484;2023-04-06T05:38:35;20.73;;;12.03;;
3843;SDS011;1937;51.444;6.484;2023-04-06T05:41:03;21.30;;;11.40;;
3843;SDS011;1937;51.444;6.484;2023-04-06T05:43:30;17.33;;;11.80;;
3843;SDS011;1937;51.444;6.484;2023-04-06T05:45:57;20.33;;;10.40;;
3843;SDS011;1937;51.444;6.484;2023-04-06T05:48:24;20.73;;;11.70;;
3843;SDS011;1937;51.444;6.484;2023-04-06T05:50:51;22.33;;;12.33;;
3843;SDS011;1937;51.444;6.484;2023-04-06T05:53:18;22.83;;;11.03;;
3843;SDS011;1937;51.444;6.484;2023-04-06T05:55:46;20.33;;;11.00;;
3843;SDS011;1937;51.444;6.484;2023-04-06T05:58:14;17.80;;;11.60;;
3843;SDS011;1937;51.444;6.484;2023-04-06T06:00:42;16.73;;;11.80;;
3843;SDS011;1937;51.444;6.484;2023-04-06T06:03:10;20.00;;;11.10;;
3843;SDS011;1937;51.444;6.484;2023-04-06T06:05:38;14.47;;;9.80;;
3843;SDS011;1937;51.444;6.484;2023-04-06T06:08:04;16.67;;;10.87;;
3843;SDS011;1937;51.444;6.484;2023-04-06T06:10:31;17.20;;;10.30;;
3843;SDS011;1937;51.444;6.484;2023-04-06T06:12:58;17.97;;;11.57;;
3843;SDS011;1937;51.444;6.484;2023-04-06T06:15:26;16.30;;;10.93;;
3843;SDS011;1937;51.444;6.484;2023-04-06T06:17:52;17.30;;;12.20;;
3843;SDS011;1937;51.444;6.484;2023-04-06T06:20:19;20.20;;;11.90;;
3843;SDS011;1937;51.444;6.484;2023-04-06T06:22:46;22.40;;;11.23;;
3843;SDS011;1937;51.444;6.484;2023-04-06T06:25:12;13.87;;;10.53;;
3843;SDS011;1937;51.444;6.484;2023-04-06T06:27:40;17.73;;;9.90;;
3843;SDS011;1937;51.444;6.484;2023-04-06T06:30:08;19.33;;;11.23;;
3843;SDS011;1937;51.444;6.484;2023-04-06T06:32:36;15.23;;;9.70;;
3843;SDS011;1937;51.444;6.484;2023-04-06T06:35:03;13.40;;;10.00;;
3843;SDS011;1937;51.444;6.484;2023-04-06T06:37:30;18.57;;;10.50;;
3843;SDS011;1937;51.444;6.484;2023-04-06T06:39:57;17.10;;;11.57;;
3843;SDS011;1937;51.444;6.484;2023-04-06T06:42:24;15.87;;;9.50;;
3843;SDS011;1937;51.444;6.484;2023-04-06T06:44:51;21.50;;;10.27;;
3843;SDS011;1937;51.444;6.484;2023-04-06T06:47:18;16.60;;;10.73;;
3843;SDS011;1937;51.444;6.484;2023-04-06T06:49:46;18.13;;;9.80;;
3843;SDS011;1937;51.444;6.484;2023-04-06T06:52:12;16.93;;;9.40;;
3843;SDS011;1937;51.444;6.484;2023-04-06T06:54:39;18.70;;;10.93;;
3843;SDS011;1937;51.444;6.484;2023-04-06T06:57:06;20.50;;;10.40;;
3843;SDS011;1937;51.444;6.484;2023-04-06T06:59:32;15.90;;;10.40;;
3843;SDS011;1937;51.444;6.484;2023-04-06T07:01:59;18.07;;;10.23;;
3843;SDS011;1937;51.444;6.484;2023-04-06T07:04:26;18.83;;;10.60;;
3843;SDS011;1937;51.444;6.484;2023-04-06T07:06:54;15.90;;;8.90;;
3843;SDS011;1937;51.444;6.484;2023-04-06T07:09:20;21.63;;;11.33;;
3843;SDS011;1937;51.444;6.484;2023-04-06T07:11:47;18.97;;;10.60;;
3843;SDS011;1937;51.444;6.484;2023-04-06T07:14:14;16.77;;;9.30;;
3843;SDS011;1937;51.444;6.484;2023-04-06T07:16:41;19.00;;;10.40;;
3843;SDS011;1937;51.444;6.484;2023-04-06T07:19:10;17.97;;;10.90;;
3843;SDS011;1937;51.444;6.484;2023-04-06T07:21:36;16.87;;;9.90;;
3843;SDS011;1937;51.444;6.484;2023-04-06T07:24:05;17.80;;;10.60;;
3843;SDS011;1937;51.444;6.484;2023-04-06T07:26:32;22.67;;;11.40;;
3843;SDS011;1937;51.444;6.484;2023-04-06T07:28:58;19.07;;;13.17;;
3843;SDS011;1937;51.444;6.484;2023-04-06T07:31:25;21.00;;;11.67;;
3843;SDS011;1937;51.444;6.484;2023-04-06T07:33:52;15.57;;;9.63;;
3843;SDS011;1937;51.444;6.484;2023-04-06T07:36:19;24.93;;;11.20;;
3843;SDS011;1937;51.444;6.484;2023-04-06T07:38:46;19.10;;;11.03;;
3843;SDS011;1937;51.444;6.484;2023-04-06T07:41:15;19.83;;;11.37;;
3843;SDS011;1937;51.444;6.484;2023-04-06T07:43:41;19.10;;;10.80;;
3843;SDS011;1937;51.444;6.484;2023-04-06T07:46:08;24.47;;;11.83;;
3843;SDS011;1937;51.444;6.484;2023-04-06T07:48:35;15.40;;;10.67;;
3843;SDS011;1937;51.444;6.484;2023-04-06T07:51:03;16.80;;;10.60;;
3843;SDS011;1937;51.444;6.484;2023-04-06T07:53:31;18.70;;;10.97;;
3843;SDS011;1937;51.444;6.484;2023-04-06T07:55:58;21.57;;;11.30;;
3843;SDS011;1937;51.444;6.484;2023-04-06T07:58:26;15.43;;;10.40;;
3843;SDS011;1937;51.444;6.484;2023-04-06T08:00:53;18.13;;;10.60;;
3843;SDS011;1937;51.444;6.484;2023-04-06T08:03:20;20.57;;;10.93;;
3843;SDS011;1937;51.444;6.484;2023-04-06T08:05:50;23.13;;;10.40;;
3843;SDS011;1937;51.444;6.484;2023-04-06T08:08:17;18.60;;;10.40;;
3843;SDS011;1937;51.444;6.484;2023-04-06T08:10:44;15.93;;;10.70;;
3843;SDS011;1937;51.444;6.484;2023-04-06T08:13:11;13.07;;;9.40;;
3843;SDS011;1937;51.444;6.484;2023-04-06T08:15:39;13.63;;;10.80;;
3843;SDS011;1937;51.444;6.484;2023-04-06T08:20:47;16.80;;;11.23;;
3843;SDS011;1937;51.444;6.484;2023-04-06T08:23:14;19.20;;;10.87;;
3843;SDS011;1937;51.444;6.484;2023-04-06T08:25:41;20.30;;;11.60;;
3843;SDS011;1937;51.444;6.484;2023-04-06T08:28:08;17.23;;;10.97;;
3843;SDS011;1937;51.444;6.484;2023-04-06T08:30:35;16.77;;;10.60;;
3843;SDS011;1937;51.444;6.484;2023-04-06T08:33:04;18.20;;;10.47;;
3843;SDS011;1937;51.444;6.484;2023-04-06T08:35:31;17.63;;;10.90;;
3843;SDS011;1937;51.444;6.484;2023-04-06T08:37:58;15.03;;;10.47;;
3843;SDS011;1937;51.444;6.484;2023-04-06T08:40:25;25.23;;;10.90;;
3843;SDS011;1937;51.444;6.484;2023-04-06T08:42:52;22.03;;;11.77;;
3843;SDS011;1937;51.444;6.484;2023-04-06T08:45:21;22.17;;;11.57;;
3843;SDS011;1937;51.444;6.484;2023-04-06T08:47:48;19.13;;;10.80;;
3843;SDS011;1937;51.444;6.484;2023-04-06T08:50:17;17.20;;;11.00;;
3843;SDS011;1937;51.444;6.484;2023-04-06T08:52:44;19.20;;;11.40;;
3843;SDS011;1937;51.444;6.484;2023-04-06T08:55:13;17.60;;;11.70;;
3843;SDS011;1937;51.444;6.484;2023-04-06T08:57:40;18.37;;;10.97;;
3843;SDS011;1937;51.444;6.484;2023-04-06T09:00:09;17.60;;;11.00;;
3843;SDS011;1937;51.444;6.484;2023-04-06T09:02:38;20.17;;;10.80;;
3843;SDS011;1937;51.444;6.484;2023-04-06T09:05:06;15.53;;;11.03;;
3843;SDS011;1937;51.444;6.484;2023-04-06T09:07:36;19.03;;;10.80;;
3843;SDS011;1937;51.444;6.484;2023-04-06T09:10:03;26.23;;;12.23;;
3843;SDS011;1937;51.444;6.484;2023-04-06T09:12:30;20.67;;;11.60;;
3843;SDS011;1937;51.444;6.484;2023-04-06T09:14:59;23.00;;;12.10;;
3843;SDS011;1937;51.444;6.484;2023-04-06T09:17:27;22.77;;;11.90;;
3843;SDS011;1937;51.444;6.484;2023-04-06T09:19:54;18.20;;;11.43;;
3843;SDS011;1937;51.444;6.484;2023-04-06T09:22:22;22.80;;;12.03;;
3843;SDS011;1937;51.444;6.484;2023-04-06T09:24:51;16.10;;;11.57;;
3843;SDS011;1937;51.444;6.484;2023-04-06T09:27:29;21.40;;;12.07;;
3843;SDS011;1937;51.444;6.484;2023-04-06T09:30:02;18.00;;;11.17;;
3843;SDS011;1937;51.444;6.484;2023-04-06T09:32:30;21.70;;;11.57;;
3843;SDS011;1937;51.444;6.484;2023-04-06T09:35:05;17.90;;;10.83;;
3843;SDS011;1937;51.444;6.484;2023-04-06T09:37:32;15.60;;;9.63;;
3843;SDS011;1937;51.444;6.484;2023-04-06T09:40:03;19.87;;;11.83;;
3843;SDS011;1937;51.444;6.484;2023-04-06T09:42:32;15.30;;;9.70;;
3843;SDS011;1937;51.444;6.484;2023-04-06T09:44:59;20.03;;;10.70;;
3843;SDS011;1937;51.444;6.484;2023-04-06T09:47:25;21.57;;;11.40;;
3843;SDS011;1937;51.444;6.484;2023-04-06T09:49:54;20.50;;;11.07;;
3843;SDS011;1937;51.444;6.484;2023-04-06T09:52:23;19.30;;;10.70;;
3843;SDS011;1937;51.444;6.484;2023-04-06T09:54:52;18.97;;;11.40;;
3843;SDS011;1937;51.444;6.484;2023-04-06T09:57:25;18.87;;;10.47;;
3843;SDS011;1937;51.444;6.484;2023-04-06T09:59:56;24.43;;;10.27;;
3843;SDS011;1937;51.444;6.484;2023-04-06T10:02:34;19.80;;;10.83;;
3843;SDS011;1937;51.444;6.484;2023-04-06T10:05:08;23.60;;;11.03;;
3843;SDS011;1937;51.444;6.484;2023-04-06T10:07:39;21.23;;;10.07;;
3843;SDS011;1937;51.444;6.484;2023-04-06T10:10:07;18.47;;;10.60;;
3843;SDS011;1937;51.444;6.484;2023-04-06T10:12:37;22.77;;;11.67;;
3843;SDS011;1937;51.444;6.484;2023-04-06T10:15:06;17.40;;;10.87;;
3843;SDS011;1937;51.444;6.484;2023-04-06T10:17:33;18.57;;;11.07;;
3843;SDS011;1937;51.444;6.484;2023-04-06T10:20:02;24.03;;;12.57;;
3843;SDS011;1937;51.444;6.484;2023-04-06T10:22:35;19.63;;;10.73;;
3843;SDS011;1937;51.444;6.484;2023-04-06T10:25:07;24.00;;;11.10;;
3843;SDS011;1937;51.444;6.484;2023-04-06T10:27:34;22.83;;;10.90;;
3843;SDS011;1937;51.444;6.484;2023-04-06T10:30:03;24.40;;;12.93;;
3843;SDS011;1937;51.444;6.484;2023-04-06T10:32:31;19.87;;;11.97;;
3843;SDS011;1937;51.444;6.484;2023-04-06T10:35:05;19.10;;;10.90;;
3843;SDS011;1937;51.444;6.484;2023-04-06T10:37:45;20.23;;;11.17;;
3843;SDS011;1937;51.444;6.484;2023-04-06T10:40:23;23.20;;;11.27;;
3843;SDS011;1937;51.444;6.484;2023-04-06T10:42:51;24.33;;;11.50;;
3843;SDS011;1937;51.444;6.484;2023-04-06T10:45:20;20.43;;;11.30;;
3843;SDS011;1937;51.444;6.484;2023-04-06T10:47:48;21.03;;;11.87;;
3843;SDS011;1937;51.444;6.484;2023-04-06T10:50:15;20.50;;;12.20;;
3843;SDS011;1937;51.444;6.484;2023-04-06T10:52:43;24.20;;;13.87;;
3843;SDS011;1937;51.444;6.484;2023-04-06T10:55:11;27.93;;;11.23;;
3843;SDS011;1937;51.444;6.484;2023-04-06T10:57:39;23.70;;;11.43;;
3843;SDS011;1937;51.444;6.484;2023-04-06T11:00:06;25.27;;;10.83;;
3843;SDS011;1937;51.444;6.484;2023-04-06T11:02:35;22.57;;;10.93;;
3843;SDS011;1937;51.444;6.484;2023-04-06T11:05:02;22.90;;;11.33;;
3843;SDS011;1937;51.444;6.484;2023-04-06T11:07:29;22.83;;;12.23;;
3843;SDS011;1937;51.444;6.484;2023-04-06T11:09:56;23.10;;;11.57;;
3843;SDS011;1937;51.444;6.484;2023-04-06T11:12:24;21.90;;;11.97;;
3843;SDS011;1937;51.444;6.484;2023-04-06T11:14:55;22.53;;;12.13;;
3843;SDS011;1937;51.444;6.484;2023-04-06T11:17:27;23.47;;;11.40;;
3843;SDS011;1937;51.444;6.484;2023-04-06T11:19:55;26.57;;;12.53;;
3843;SDS011;1937;51.444;6.484;2023-04-06T11:22:22;28.47;;;12.00;;
3843;SDS011;1937;51.444;6.484;2023-04-06T11:24:50;22.10;;;11.77;;
3843;SDS011;1937;51.444;6.484;2023-04-06T11:27:17;25.77;;;11.47;;
3843;SDS011;1937;51.444;6.484;2023-04-06T11:29:45;19.90;;;11.10;;
3843;SDS011;1937;51.444;6.484;2023-04-06T11:32:19;19.87;;;10.60;;
3843;SDS011;1937;51.444;6.484;2023-04-06T11:34:47;26.00;;;12.77;;
3843;SDS011;1937;51.444;6.484;2023-04-06T11:37:15;21.40;;;11.77;;
3843;SDS011;1937;51.444;6.484;2023-04-06T11:39:43;17.33;;;11.40;;
3843;SDS011;1937;51.444;6.484;2023-04-06T11:42:20;24.60;;;11.43;;
3843;SDS011;1937;51.444;6.484;2023-04-06T11:44:49;21.20;;;11.07;;
3843;SDS011;1937;51.444;6.484;2023-04-06T11:47:18;26.63;;;11.87;;
3843;SDS011;1937;51.444;6.484;2023-04-06T11:49:45;23.60;;;11.67;;
3843;SDS011;1937;51.444;6.484;2023-04-06T11:52:17;19.70;;;11.20;;
3843;SDS011;1937;51.444;6.484;2023-04-06T11:54:45;15.53;;;8.20;;
3843;SDS011;1937;51.444;6.484;2023-04-06T11:57:13;18.57;;;8.40;;
3843;SDS011;1937;51.444;6.484;2023-04-06T11:59:41;18.37;;;8.20;;
3843;SDS011;1937;51.444;6.484;2023-04-06T12:02:09;13.43;;;9.10;;
3843;SDS011;1937;51.444;6.484;2023-04-06T12:04:35;14.50;;;9.50;;
3843;SDS011;1937;51.444;6.484;2023-04-06T12:07:02;13.00;;;8.50;;
3843;SDS011;1937;51.444;6.484;2023-04-06T12:09:31;15.03;;;9.37;;
3843;SDS011;1937;51.444;6.484;2023-04-06T12:11:59;16.50;;;9.90;;
3843;SDS011;1937;51.444;6.484;2023-04-06T12:14:26;15.13;;;9.83;;
3843;SDS011;1937;51.444;6.484;2023-04-06T12:16:53;23.33;;;10.50;;
3843;SDS011;1937;51.444;6.484;2023-04-06T12:19:19;21.33;;;11.53;;
3843;SDS011;1937;51.444;6.484;2023-04-06T12:21:50;24.27;;;11.20;;
3843;SDS011;1937;51.444;6.484;2023-04-06T12:24:17;30.80;;;14.30;;
3843;SDS011;1937;51.444;6.484;2023-04-06T12:26:45;10.97;;;6.67;;
3843;SDS011;1937;51.444;6.484;2023-04-06T12:29:12;12.97;;;6.70;;
3843;SDS011;1937;51.444;6.484;2023-04-06T12:31:38;11.40;;;6.30;;
3843;SDS011;1937;51.444;6.484;2023-04-06T12:34:06;13.63;;;8.70;;
3843;SDS011;1937;51.444;6.484;2023-04-06T12:36:33;8.67;;;5.10;;
3843;SDS011;1937;51.444;6.484;2023-04-06T12:39:00;8.43;;;4.90;;
3843;SDS011;1937;51.444;6.484;2023-04-06T12:41:27;7.27;;;4.17;;
3843;SDS011;1937;51.444;6.484;2023-04-06T12:43:56;9.93;;;6.43;;
3843;SDS011;1937;51.444;6.484;2023-04-06T12:46:24;6.57;;;4.80;;
3843;SDS011;1937;51.444;6.484;2023-04-06T12:48:51;14.00;;;5.97;;
3843;SDS011;1937;51.444;6.484;2023-04-06T12:51:20;8.80;;;5.23;;
3843;SDS011;1937;51.444;6.484;2023-04-06T12:53:46;10.27;;;5.93;;
3843;SDS011;1937;51.444;6.484;2023-04-06T12:56:14;11.50;;;6.13;;
3843;SDS011;1937;51.444;6.484;2023-04-06T12:58:42;11.13;;;6.47;;
3843;SDS011;1937;51.444;6.484;2023-04-06T13:01:10;10.03;;;6.27;;
3843;SDS011;1937;51.444;6.484;2023-04-06T13:03:37;13.80;;;7.63;;
3843;SDS011;1937;51.444;6.484;2023-04-06T13:06:04;12.00;;;6.93;;
3843;SDS011;1937;51.444;6.484;2023-04-06T13:08:33;11.90;;;6.33;;
3843;SDS011;1937;51.444;6.484;2023-04-06T13:11:01;14.03;;;6.27;;
3843;SDS011;1937;51.444;6.484;2023-04-06T13:13:28;10.23;;;6.67;;
3843;SDS011;1937;51.444;6.484;2023-04-06T13:15:58;10.17;;;7.03;;
3843;SDS011;1937;51.444;6.484;2023-04-06T13:18:28;15.93;;;6.60;;
3843;SDS011;1937;51.444;6.484;2023-04-06T13:20:55;10.70;;;6.17;;
3843;SDS011;1937;51.444;6.484;2023-04-06T13:23:22;10.80;;;7.10;;
3843;SDS011;1937;51.444;6.484;2023-04-06T13:25:56;12.37;;;7.00;;
3843;SDS011;1937;51.444;6.484;2023-04-06T13:28:24;10.50;;;6.83;;
3843;SDS011;1937;51.444;6.484;2023-04-06T13:30:51;13.47;;;7.67;;
3843;SDS011;1937;51.444;6.484;2023-04-06T13:33:17;12.70;;;8.37;;
3843;SDS011;1937;51.444;6.484;2023-04-06T13:35:46;17.70;;;7.57;;
3843;SDS011;1937;51.444;6.484;2023-04-06T13:38:13;15.07;;;8.30;;
3843;SDS011;1937;51.444;6.484;2023-04-06T13:40:41;13.20;;;8.20;;
3843;SDS011;1937;51.444;6.484;2023-04-06T13:43:09;14.47;;;8.53;;
3843;SDS011;1937;51.444;6.484;2023-04-06T13:45:36;12.60;;;8.20;;
3843;SDS011;1937;51.444;6.484;2023-04-06T13:48:03;11.77;;;8.03;;
3843;SDS011;1937;51.444;6.484;2023-04-06T13:50:30;18.50;;;7.70;;
3843;SDS011;1937;51.444;6.484;2023-04-06T13:53:00;12.43;;;7.30;;
3843;SDS011;1937;51.444;6.484;2023-04-06T13:55:26;12.97;;;9.33;;
3843;SDS011;1937;51.444;6.484;2023-04-06T13:57:53;15.47;;;7.90;;
3843;SDS011;1937;51.444;6.484;2023-04-06T14:00:20;16.07;;;9.40;;
3843;SDS011;1937;51.444;6.484;2023-04-06T14:02:47;14.60;;;8.23;;
3843;SDS011;1937;51.444;6.484;2023-04-06T14:05:13;12.57;;;8.30;;
3843;SDS011;1937;51.444;6.484;2023-04-06T14:07:40;12.90;;;7.93;;
3843;SDS011;1937;51.444;6.484;2023-04-06T14:10:08;18.93;;;9.50;;
3843;SDS011;1937;51.444;6.484;2023-04-06T14:12:38;15.73;;;8.60;;
3843;SDS011;1937;51.444;6.484;2023-04-06T14:15:06;16.73;;;8.60;;
3843;SDS011;1937;51.444;6.484;2023-04-06T14:17:34;14.20;;;8.00;;
3843;SDS011;1937;51.444;6.484;2023-04-06T14:20:00;14.57;;;9.30;;
3843;SDS011;1937;51.444;6.484;2023-04-06T14:22:27;17.90;;;8.50;;
3843;SDS011;1937;51.444;6.484;2023-04-06T14:24:54;21.27;;;11.30;;
3843;SDS011;1937;51.444;6.484;2023-04-06T14:27:23;18.33;;;13.47;;
3843;SDS011;1937;51.444;6.484;2023-04-06T14:29:49;16.87;;;10.50;;
3843;SDS011;1937;51.444;6.484;2023-04-06T14:32:17;29.77;;;14.50;;
3843;SDS011;1937;51.444;6.484;2023-04-06T14:34:45;14.40;;;9.30;;
3843;SDS011;1937;51.444;6.484;2023-04-06T14:37:12;21.00;;;8.90;;
3843;SDS011;1937;51.444;6.484;2023-04-06T14:39:38;14.20;;;9.50;;
3843;SDS011;1937;51.444;6.484;2023-04-06T14:42:05;20.00;;;10.20;;
3843;SDS011;1937;51.444;6.484;2023-04-06T14:44:33;15.60;;;8.83;;
3843;SDS011;1937;51.444;6.484;2023-04-06T14:47:01;19.87;;;9.00;;
3843;SDS011;1937;51.444;6.484;2023-04-06T14:49:28;16.50;;;8.97;;
3843;SDS011;1937;51.444;6.484;2023-04-06T14:51:56;13.90;;;8.43;;
3843;SDS011;1937;51.444;6.484;2023-04-06T14:54:23;13.37;;;8.60;;
3843;SDS011;1937;51.444;6.484;2023-04-06T14:56:50;13.00;;;8.20;;
3843;SDS011;1937;51.444;6.484;2023-04-06T14:59:16;12.17;;;8.00;;